KCXO

Conroe-North Houston Regional Airport

Houston, Texas, USA
METAR KCXO 141653Z 30011G18KT 10SM OVC010 08/08 A2995 RMK AO2 RAE09 CIG 009V012 SLP141 P0000 T00830078
Observed Flight Rules
Dec-14 @ 16:53 UTC (12 minutes ago) Marginal Visual Flight Rules
Wind Visibility Clouds
300° at 11 knots
 Gusting to 18 knots
10 miles
  • Overcast at 1,000' AGL
Temperatures Readings Precipitation
Current 8°C / 46°F
Dewpoint 8°C / 46°F
Humidity 100%
Altimeter 29.95" Hg
Pressure 1014.1 hPa
Elevation 75
Current Rain 0.005
METAR KCXO 141653Z 30011G18KT 10SM OVC010 08/08 A2995 RMK AO2 RAE09 CIG 009V012 SLP141 P0000 T00830078
Observed Flight Rules
Dec-14 @ 16:53 UTC
(12 minutes ago)
MVFR
Wind Visibility
300° at 11 knots
 Gusting to 18 knots
10 miles
Clouds
  • Overcast at 1,000' AGL
Temperature Dewpoint
8°C / 46°F 8°C / 46°F
Humidity Altimeter Pressure
100% 29.95" Hg 1014.1 hPa
Current Rain
0.005